Time;durP1;ratioP1;P1;durP2;ratioP2;P2;SDS_P1;SDS_P2;PMS_P1;PMS_P2;Temp;Humidity;BMP_temperature;BMP_pressure;BME280_temperature;BME280_humidity;BME280_pressure;Samples;Min_cycle;Max_cycle;Signal;HPM_P1;HPM_P2
2023/09/24 00:01:49;;;;;;;6.30;2.15;;;12.80;99.90;;;;;;5074114;28;20412;-61
2023/09/24 00:04:17;;;;;;;7.22;2.17;;;12.70;99.90;;;;;;5074210;28;20040;-60
2023/09/24 00:06:43;;;;;;;8.05;2.33;;;12.70;99.90;;;;;;5074271;28;20362;-61
2023/09/24 00:09:09;;;;;;;7.13;2.10;;;12.70;99.90;;;;;;5074205;28;20456;-61
2023/09/24 00:11:34;;;;;;;6.13;2.05;;;12.70;99.90;;;;;;5073775;28;20080;-62
2023/09/24 00:14:00;;;;;;;7.50;2.42;;;12.60;99.90;;;;;;5073459;28;20056;-60
2023/09/24 00:16:25;;;;;;;9.63;2.10;;;12.60;99.90;;;;;;5073631;28;20064;-61
2023/09/24 00:18:51;;;;;;;7.95;2.08;;;12.50;99.90;;;;;;5073716;28;20033;-61
2023/09/24 00:21:17;;;;;;;7.78;2.45;;;12.50;99.90;;;;;;5073621;28;20084;-61
2023/09/24 00:23:44;;;;;;;7.72;2.25;;;12.40;99.90;;;;;;5073768;28;20036;-60
2023/09/24 00:26:10;;;;;;;6.45;2.03;;;12.40;99.90;;;;;;5073519;28;20048;-61
2023/09/24 00:28:36;;;;;;;7.90;2.35;;;12.40;99.90;;;;;;5073422;28;20052;-61
2023/09/24 00:31:02;;;;;;;5.15;1.85;;;12.40;99.90;;;;;;5073511;28;20087;-61
2023/09/24 00:33:29;;;;;;;7.18;2.47;;;12.40;99.90;;;;;;5073642;28;20083;-60
2023/09/24 00:35:58;;;;;;;4.95;2.00;;;12.30;99.90;;;;;;5073568;28;20036;-61
2023/09/24 00:38:24;;;;;;;7.97;2.45;;;12.10;99.90;;;;;;5072134;28;20121;-60
2023/09/24 00:40:50;;;;;;;6.65;2.25;;;12.20;99.90;;;;;;5073161;28;20073;-60
2023/09/24 00:43:32;;;;;;;7.07;2.13;;;12.20;99.90;;;;;;5073264;28;20036;-60
2023/09/24 00:46:07;;;;;;;5.85;2.30;;;12.10;99.90;;;;;;5073402;28;20045;-61
2023/09/24 00:48:33;;;;;;;11.30;2.60;;;12.10;99.90;;;;;;5072049;28;20159;-61
2023/09/24 00:51:02;;;;;;;6.45;2.40;;;12.10;99.90;;;;;;5054201;28;20055;-60
2023/09/24 00:53:29;;;;;;;7.90;2.47;;;12.00;99.90;;;;;;5072998;28;20056;-60
2023/09/24 00:55:56;;;;;;;8.70;3.45;;;12.00;99.90;;;;;;5073153;28;20036;-61
2023/09/24 00:58:26;;;;;;;6.28;2.33;;;12.10;99.90;;;;;;5073098;28;20056;-61
2023/09/24 01:00:52;;;;;;;6.75;2.55;;;12.10;99.90;;;;;;5073125;28;20036;-61
2023/09/24 01:03:22;;;;;;;6.43;2.03;;;12.00;99.90;;;;;;5071954;28;20062;-60
2023/09/24 01:05:49;;;;;;;7.18;2.53;;;12.00;99.90;;;;;;5072757;28;20044;-60
2023/09/24 01:08:19;;;;;;;7.15;2.55;;;11.90;99.90;;;;;;5073062;28;20133;-61
2023/09/24 01:10:49;;;;;;;7.90;2.47;;;11.90;99.90;;;;;;5072889;28;20040;-60
2023/09/24 01:13:20;;;;;;;7.95;2.50;;;11.90;99.90;;;;;;5072572;28;20497;-61
2023/09/24 01:15:48;;;;;;;5.07;1.95;;;11.80;99.90;;;;;;5072694;28;20040;-61
2023/09/24 01:18:15;;;;;;;8.07;2.47;;;11.80;99.90;;;;;;5072907;28;20425;-61
2023/09/24 01:20:42;;;;;;;5.20;2.10;;;11.80;99.90;;;;;;5072455;28;20129;-61
2023/09/24 01:23:15;;;;;;;6.82;2.50;;;11.80;99.90;;;;;;5072687;28;20075;-61
2023/09/24 01:25:43;;;;;;;7.78;2.55;;;11.80;99.90;;;;;;5072709;28;20143;-60
2023/09/24 01:28:10;;;;;;;6.45;2.50;;;11.70;99.90;;;;;;5072723;28;20174;-61
2023/09/24 01:30:36;;;;;;;8.13;2.90;;;11.70;99.90;;;;;;5072402;28;20123;-61
2023/09/24 01:33:02;;;;;;;8.00;2.67;;;11.70;99.90;;;;;;5071054;28;20132;-61
2023/09/24 01:35:30;;;;;;;6.88;2.70;;;11.70;99.90;;;;;;5072437;28;20397;-61
2023/09/24 01:37:59;;;;;;;6.22;2.60;;;11.70;99.90;;;;;;5072488;28;20055;-61
2023/09/24 01:40:32;;;;;;;6.10;2.70;;;11.60;99.90;;;;;;5072466;28;20045;-60
2023/09/24 01:42:58;;;;;;;7.35;2.97;;;11.60;99.90;;;;;;5072229;28;20362;-60
2023/09/24 01:45:25;;;;;;;6.95;2.83;;;11.70;99.90;;;;;;5072186;28;20087;-60
2023/09/24 01:47:51;;;;;;;6.93;2.75;;;11.60;99.90;;;;;;5072129;28;20527;-61
2023/09/24 01:50:17;;;;;;;9.57;3.22;;;11.60;99.90;;;;;;5070771;28;20080;-61
2023/09/24 01:52:45;;;;;;;10.98;3.60;;;11.50;99.90;;;;;;5072212;28;20075;-60
2023/09/24 01:55:15;;;;;;;8.20;3.30;;;11.40;99.90;;;;;;5072048;28;20040;-61
2023/09/24 01:57:42;;;;;;;7.97;2.90;;;11.50;99.90;;;;;;5072029;28;20046;-61
2023/09/24 02:00:11;;;;;;;7.07;3.10;;;11.50;99.90;;;;;;5072266;28;20048;-61
2023/09/24 02:02:38;;;;;;;10.23;3.28;;;11.50;99.90;;;;;;5071867;28;20041;-61
2023/09/24 02:05:10;;;;;;;8.57;3.60;;;11.50;99.90;;;;;;5072106;28;20044;-60
2023/09/24 02:07:38;;;;;;;8.07;3.40;;;11.50;99.90;;;;;;5072078;28;20127;-60
2023/09/24 02:10:05;;;;;;;7.95;3.33;;;11.50;99.90;;;;;;5072246;28;20102;-61
2023/09/24 02:12:36;;;;;;;9.45;3.20;;;11.50;99.90;;;;;;5071737;28;20084;-61
2023/09/24 02:15:11;;;;;;;8.20;3.55;;;11.60;99.90;;;;;;5071976;28;20048;-61
2023/09/24 02:17:41;;;;;;;6.75;2.85;;;11.50;99.90;;;;;;5072091;28;20392;-61
2023/09/24 02:20:18;;;;;;;7.35;3.28;;;11.50;99.90;;;;;;5071957;28;20044;-60
2023/09/24 02:22:48;;;;;;;9.63;3.30;;;11.50;99.90;;;;;;5072066;28;20040;-61
2023/09/24 02:25:15;;;;;;;9.05;3.70;;;11.50;99.90;;;;;;5072013;28;20392;-60
2023/09/24 02:27:42;;;;;;;8.05;3.40;;;11.50;99.90;;;;;;5071996;28;20044;-61
2023/09/24 02:30:11;;;;;;;9.73;3.80;;;11.50;99.90;;;;;;5071769;28;20125;-60
2023/09/24 02:32:38;;;;;;;7.30;3.38;;;11.40;99.90;;;;;;5071745;28;20108;-61
2023/09/24 02:35:04;;;;;;;7.22;2.88;;;11.40;99.90;;;;;;5071562;28;20142;-61
2023/09/24 02:37:30;;;;;;;9.45;3.38;;;11.50;99.90;;;;;;5071618;28;21052;-61
2023/09/24 02:39:56;;;;;;;7.80;3.20;;;11.50;99.90;;;;;;5071808;28;20037;-60
2023/09/24 02:42:22;;;;;;;6.60;3.10;;;11.50;99.90;;;;;;5071666;28;20043;-61
2023/09/24 02:44:51;;;;;;;6.97;2.95;;;11.40;99.90;;;;;;5071822;28;20080;-61
2023/09/24 02:47:17;;;;;;;7.07;3.10;;;11.30;99.90;;;;;;5070607;28;20056;-61
2023/09/24 02:49:43;;;;;;;7.70;3.13;;;11.30;99.90;;;;;;5071595;28;20059;-60
2023/09/24 02:52:09;;;;;;;9.00;3.60;;;11.30;99.90;;;;;;5071459;28;20040;-60
2023/09/24 02:54:34;;;;;;;10.35;3.15;;;11.40;99.90;;;;;;5071801;28;20083;-60
2023/09/24 02:57:00;;;;;;;6.38;3.00;;;11.40;99.90;;;;;;5071756;28;20068;-60
2023/09/24 02:59:26;;;;;;;7.22;2.75;;;11.40;99.90;;;;;;5071512;28;20083;-60
2023/09/24 03:01:52;;;;;;;7.28;2.95;;;11.40;99.90;;;;;;5071536;28;20407;-59
2023/09/24 03:04:18;;;;;;;8.20;2.88;;;11.40;99.90;;;;;;5071665;28;20078;-60
2023/09/24 03:06:45;;;;;;;7.15;3.17;;;11.40;99.90;;;;;;5071352;28;20078;-60
2023/09/24 03:09:11;;;;;;;7.55;2.60;;;11.40;99.90;;;;;;5071381;28;20040;-61
2023/09/24 03:11:37;;;;;;;6.57;2.90;;;11.50;99.90;;;;;;5071491;28;20047;-61
2023/09/24 03:14:03;;;;;;;7.20;2.88;;;11.50;99.90;;;;;;5071966;28;20447;-60
2023/09/24 03:16:29;;;;;;;8.63;2.95;;;11.50;99.90;;;;;;5075264;28;20045;-61
2023/09/24 03:18:55;;;;;;;10.10;3.00;;;11.50;99.90;;;;;;5074910;28;20047;-61
2023/09/24 03:21:21;;;;;;;6.93;3.08;;;11.60;99.90;;;;;;5074962;28;20111;-62
2023/09/24 03:23:47;;;;;;;9.35;3.58;;;11.60;99.90;;;;;;5074963;28;20036;-60
2023/09/24 03:26:16;;;;;;;7.95;2.95;;;11.70;99.90;;;;;;5074898;28;20052;-61
2023/09/24 03:28:42;;;;;;;6.88;3.20;;;11.70;99.90;;;;;;5074885;28;20036;-61
2023/09/24 03:31:13;;;;;;;9.50;3.50;;;11.70;99.90;;;;;;5074895;28;20041;-61
2023/09/24 03:33:38;;;;;;;6.60;3.00;;;11.70;99.90;;;;;;5074822;28;20115;-60
2023/09/24 03:36:07;;;;;;;7.65;3.72;;;11.80;99.90;;;;;;5074760;28;20591;-60
2023/09/24 03:38:33;;;;;;;8.18;3.70;;;11.70;99.90;;;;;;5074513;28;20063;-61
2023/09/24 03:40:59;;;;;;;9.10;3.60;;;11.70;99.90;;;;;;5056604;28;20036;-61
2023/09/24 03:43:25;;;;;;;7.72;3.33;;;11.80;99.90;;;;;;5074552;28;20039;-60
2023/09/24 03:45:51;;;;;;;8.30;3.60;;;11.90;99.90;;;;;;5074507;28;20044;-61
2023/09/24 03:48:17;;;;;;;6.63;3.33;;;11.90;99.90;;;;;;5074430;28;20051;-60
2023/09/24 03:50:43;;;;;;;8.38;4.05;;;11.90;99.90;;;;;;5074475;28;20029;-61
2023/09/24 03:53:09;;;;;;;9.07;3.53;;;11.90;99.90;;;;;;5074405;28;20036;-61
2023/09/24 03:55:35;;;;;;;7.72;3.70;;;11.90;99.90;;;;;;5072977;28;20048;-60
2023/09/24 03:58:01;;;;;;;8.35;3.63;;;11.90;99.90;;;;;;5074481;28;20454;-60
2023/09/24 04:00:27;;;;;;;8.35;4.03;;;11.90;99.90;;;;;;5072953;28;20045;-61
2023/09/24 04:02:53;;;;;;;8.63;3.97;;;11.80;99.90;;;;;;5074116;28;20263;-61
2023/09/24 04:05:21;;;;;;;11.23;4.47;;;11.80;99.90;;;;;;5074310;28;20584;-61
2023/09/24 04:07:52;;;;;;;7.50;3.70;;;11.80;99.90;;;;;;5074261;28;20048;-60
2023/09/24 04:10:20;;;;;;;9.63;4.22;;;11.80;99.90;;;;;;5074251;28;20040;-61
2023/09/24 04:12:49;;;;;;;10.13;4.15;;;11.70;99.90;;;;;;5073859;28;20064;-61
2023/09/24 04:15:18;;;;;;;8.15;3.95;;;11.70;99.90;;;;;;5074060;28;20048;-61
2023/09/24 04:17:46;;;;;;;9.98;4.35;;;11.60;99.90;;;;;;5073782;28;20051;-61
2023/09/24 04:20:15;;;;;;;9.45;4.03;;;11.70;99.90;;;;;;5074130;28;20058;-61
2023/09/24 04:22:44;;;;;;;7.63;4.10;;;11.70;99.90;;;;;;5073827;28;20036;-60
2023/09/24 04:25:11;;;;;;;9.88;4.32;;;11.60;99.90;;;;;;5073807;28;20044;-60
2023/09/24 04:27:38;;;;;;;9.95;4.50;;;11.50;99.90;;;;;;5072669;28;20102;-60
2023/09/24 04:30:08;;;;;;;8.43;4.72;;;11.50;99.90;;;;;;5073466;28;20055;-61
2023/09/24 04:32:33;;;;;;;9.73;4.85;;;11.50;99.90;;;;;;5073777;28;20048;-60
2023/09/24 04:34:59;;;;;;;8.65;4.63;;;11.50;99.90;;;;;;5073660;28;20071;-60
2023/09/24 04:37:26;;;;;;;9.20;4.50;;;11.50;99.90;;;;;;5073511;28;20373;-60
2023/09/24 04:39:52;;;;;;;9.63;4.93;;;11.40;99.90;;;;;;5073337;28;20048;-60
2023/09/24 04:42:18;;;;;;;10.52;4.72;;;11.40;99.90;;;;;;5073401;28;20053;-60
2023/09/24 04:44:43;;;;;;;11.30;4.65;;;11.40;99.90;;;;;;5073202;28;20135;-61
2023/09/24 04:47:09;;;;;;;10.18;5.05;;;11.40;99.90;;;;;;5073364;28;20098;-61
2023/09/24 04:49:35;;;;;;;10.38;5.32;;;11.40;99.90;;;;;;5073281;28;20051;-61
2023/09/24 04:52:03;;;;;;;9.90;4.72;;;11.40;99.90;;;;;;5073231;28;20500;-62
2023/09/24 04:54:29;;;;;;;7.72;4.50;;;11.30;99.90;;;;;;5073062;28;20049;-61
2023/09/24 04:56:55;;;;;;;11.13;5.07;;;11.40;99.90;;;;;;5072894;28;20212;-59
2023/09/24 04:59:20;;;;;;;9.73;4.80;;;11.30;99.90;;;;;;5071613;28;20036;-61
2023/09/24 05:01:46;;;;;;;10.80;4.80;;;11.30;99.90;;;;;;5071543;28;20047;-61
2023/09/24 05:04:12;;;;;;;11.98;5.45;;;11.20;99.90;;;;;;5073026;28;20032;-61
2023/09/24 05:06:37;;;;;;;8.90;4.90;;;11.20;99.90;;;;;;5073145;28;20040;-61
2023/09/24 05:09:03;;;;;;;10.45;4.97;;;11.30;99.90;;;;;;5071678;28;20040;-60
2023/09/24 05:11:29;;;;;;;8.32;4.65;;;11.30;99.90;;;;;;5072995;28;20036;-61
2023/09/24 05:13:55;;;;;;;11.48;5.00;;;11.30;99.90;;;;;;5072415;28;20524;-60
2023/09/24 05:16:21;;;;;;;9.60;4.90;;;11.30;99.90;;;;;;5072872;28;20052;-60
2023/09/24 05:18:47;;;;;;;8.43;4.57;;;11.30;99.90;;;;;;5071505;28;20043;-60
2023/09/24 05:21:18;;;;;;;9.77;4.55;;;11.30;99.90;;;;;;5072493;28;20040;-61
2023/09/24 05:23:45;;;;;;;12.00;5.30;;;11.40;99.90;;;;;;5072583;28;20032;-61
2023/09/24 05:26:14;;;;;;;11.25;5.00;;;11.40;99.90;;;;;;5072486;28;20028;-61
2023/09/24 05:28:41;;;;;;;10.23;5.47;;;11.30;99.90;;;;;;5072519;28;20090;-61
2023/09/24 05:31:07;;;;;;;11.00;4.50;;;11.30;99.90;;;;;;5072646;28;20392;-60
2023/09/24 05:33:33;;;;;;;11.63;5.40;;;11.30;99.90;;;;;;5072345;28;20497;-60
2023/09/24 05:35:59;;;;;;;10.80;5.22;;;11.30;99.90;;;;;;5072235;28;20051;-61
2023/09/24 05:38:29;;;;;;;11.80;4.88;;;11.20;99.90;;;;;;5070477;28;20045;-61
2023/09/24 05:40:55;;;;;;;10.90;5.18;;;11.30;99.90;;;;;;5072240;28;20040;-61
2023/09/24 05:43:22;;;;;;;9.68;5.05;;;11.30;99.90;;;;;;5071283;28;20389;-61
2023/09/24 05:45:49;;;;;;;12.50;5.22;;;11.20;99.90;;;;;;5072206;28;20059;-61
2023/09/24 05:48:15;;;;;;;9.45;5.18;;;11.20;99.90;;;;;;5072212;28;20044;-61
2023/09/24 05:50:42;;;;;;;8.75;4.90;;;11.20;99.90;;;;;;5072044;28;20048;-61
2023/09/24 05:53:12;;;;;;;9.35;5.20;;;11.20;99.90;;;;;;5072166;28;20533;-60
2023/09/24 05:55:38;;;;;;;11.10;4.53;;;11.20;99.90;;;;;;5071931;28;20040;-60
2023/09/24 05:58:05;;;;;;;12.77;5.45;;;11.20;99.90;;;;;;5070892;28;20124;-60
2023/09/24 06:00:31;;;;;;;10.10;5.28;;;11.30;99.90;;;;;;5072272;28;20524;-60
2023/09/24 06:02:58;;;;;;;12.40;4.95;;;11.30;99.90;;;;;;5072097;28;20119;-60
2023/09/24 06:05:24;;;;;;;9.48;4.72;;;11.40;99.90;;;;;;5070662;28;20052;-61
2023/09/24 06:07:50;;;;;;;12.07;4.78;;;11.30;99.90;;;;;;5071964;28;20044;-61
2023/09/24 06:10:15;;;;;;;11.15;5.18;;;11.30;99.90;;;;;;5070703;28;20388;-61
2023/09/24 06:12:41;;;;;;;11.63;5.03;;;11.40;99.90;;;;;;5071829;28;20036;-60
2023/09/24 06:15:10;;;;;;;13.73;4.82;;;11.30;99.90;;;;;;5071528;28;20052;-61
2023/09/24 06:17:36;;;;;;;11.75;5.70;;;11.30;99.90;;;;;;5072000;28;20094;-61
2023/09/24 06:20:03;;;;;;;9.60;5.03;;;11.30;99.90;;;;;;5072144;28;20037;-60
2023/09/24 06:22:28;;;;;;;12.63;5.53;;;11.30;99.90;;;;;;5070605;28;20047;-61
2023/09/24 06:24:54;;;;;;;13.40;5.18;;;11.40;99.90;;;;;;5071727;28;20044;-61
2023/09/24 06:27:21;;;;;;;11.43;4.82;;;11.40;99.90;;;;;;5072315;28;20040;-60
2023/09/24 06:29:47;;;;;;;9.77;5.35;;;11.40;99.90;;;;;;5071583;28;20087;-60
2023/09/24 06:32:13;;;;;;;11.82;4.68;;;11.50;99.90;;;;;;5071705;28;20052;-61
2023/09/24 06:34:39;;;;;;;10.65;4.55;;;11.60;99.90;;;;;;5071595;28;20036;-61
2023/09/24 06:37:05;;;;;;;14.07;5.80;;;11.60;99.90;;;;;;5070421;28;20051;-60
2023/09/24 06:39:33;;;;;;;9.10;4.95;;;11.60;99.90;;;;;;5071609;28;20370;-61
2023/09/24 06:42:00;;;;;;;14.40;5.47;;;11.70;99.90;;;;;;5071812;28;20033;-61
2023/09/24 06:44:25;;;;;;;9.02;4.75;;;11.80;99.90;;;;;;5071692;28;20037;-60
2023/09/24 06:46:51;;;;;;;8.93;5.18;;;11.80;99.90;;;;;;5071887;28;20839;-60
2023/09/24 06:49:17;;;;;;;12.38;5.30;;;12.00;99.90;;;;;;5072764;28;20045;-61
2023/09/24 06:51:43;;;;;;;12.20;4.90;;;12.00;99.90;;;;;;5075439;28;20048;-61
2023/09/24 06:54:08;;;;;;;10.27;5.43;;;12.10;99.90;;;;;;5075666;28;20443;-61
2023/09/24 06:56:34;;;;;;;11.75;5.45;;;12.10;99.90;;;;;;5075512;28;20144;-61
2023/09/24 06:59:00;;;;;;;11.15;5.38;;;12.20;99.90;;;;;;5075664;28;20040;-60
2023/09/24 07:01:25;;;;;;;10.55;5.70;;;12.10;99.90;;;;;;5075504;28;20473;-61
2023/09/24 07:03:51;;;;;;;11.45;4.20;;;12.10;99.90;;;;;;5075442;28;20085;-61
2023/09/24 07:06:17;;;;;;;10.00;4.68;;;12.10;99.90;;;;;;5075061;28;20041;-60
2023/09/24 07:08:43;;;;;;;10.98;4.20;;;12.10;99.90;;;;;;5074972;28;20591;-61
2023/09/24 07:11:31;;;;;;;12.23;5.35;;;12.20;99.90;;;;;;5075345;28;20449;-60
2023/09/24 07:13:57;;;;;;;11.55;5.00;;;12.30;99.90;;;;;;5075115;28;20393;-60
2023/09/24 07:16:24;;;;;;;14.18;5.22;;;12.40;99.90;;;;;;5075057;28;20041;-63
2023/09/24 07:18:51;;;;;;;13.80;5.30;;;12.40;99.90;;;;;;5074763;28;20045;-60
2023/09/24 07:21:21;;;;;;;9.27;5.03;;;12.40;99.90;;;;;;5074760;28;20036;-60
2023/09/24 07:23:47;;;;;;;10.82;4.70;;;12.50;99.90;;;;;;5074974;28;20037;-60
2023/09/24 07:26:14;;;;;;;10.50;4.88;;;12.50;99.90;;;;;;5075021;28;20044;-60
2023/09/24 07:28:40;;;;;;;12.15;5.57;;;12.50;99.90;;;;;;5074958;28;20051;-60
2023/09/24 07:31:19;;;;;;;14.02;5.85;;;12.60;99.90;;;;;;5074940;28;20040;-60
2023/09/24 07:33:45;;;;;;;9.65;4.97;;;12.60;99.90;;;;;;5074662;28;20495;-60
2023/09/24 07:36:12;;;;;;;9.32;4.85;;;12.60;99.90;;;;;;5074814;28;20040;-60
2023/09/24 07:38:39;;;;;;;12.05;5.05;;;12.60;99.90;;;;;;5074510;28;20041;-60
2023/09/24 07:41:07;;;;;;;11.88;4.80;;;12.70;99.90;;;;;;5074615;28;20051;-60
2023/09/24 07:43:34;;;;;;;11.65;5.10;;;12.70;99.10;;;;;;5074510;28;20116;-59
2023/09/24 07:45:59;;;;;;;11.13;5.22;;;12.70;95.80;;;;;;5074744;28;20120;-60
2023/09/24 07:48:25;;;;;;;10.50;4.88;;;12.90;97.80;;;;;;5074599;28;20123;-59
2023/09/24 07:50:55;;;;;;;10.38;4.70;;;13.00;91.30;;;;;;5074503;28;20121;-60
2023/09/24 07:53:25;;;;;;;11.55;5.45;;;13.10;88.60;;;;;;5074533;28;20052;-61
2023/09/24 07:55:58;;;;;;;11.20;4.60;;;13.10;90.30;;;;;;5074235;28;20504;-59
2023/09/24 07:58:24;;;;;;;10.25;5.05;;;13.20;89.20;;;;;;5074111;28;20480;-61
2023/09/24 08:00:52;;;;;;;9.00;4.30;;;13.20;82.80;;;;;;5073901;28;20396;-58
2023/09/24 08:03:19;;;;;;;11.43;4.53;;;13.30;72.50;;;;;;5073198;28;20385;-59
2023/09/24 08:05:44;;;;;;;9.32;4.20;;;13.30;69.80;;;;;;5074083;28;20048;-59
2023/09/24 08:08:10;;;;;;;8.65;4.05;;;13.40;67.50;;;;;;5074319;28;20047;-59
2023/09/24 08:10:36;;;;;;;10.30;4.47;;;13.50;66.00;;;;;;5074166;28;20045;-60
2023/09/24 08:13:05;;;;;;;10.23;5.03;;;13.50;61.30;;;;;;5073887;28;20072;-61
2023/09/24 08:15:31;;;;;;;9.52;3.95;;;13.70;55.30;;;;;;5073725;28;20397;-59
2023/09/24 08:17:57;;;;;;;10.40;4.43;;;13.70;50.30;;;;;;5074033;28;20040;-59
2023/09/24 08:20:22;;;;;;;9.85;4.07;;;13.80;53.20;;;;;;5072568;28;20490;-60
2023/09/24 08:22:48;;;;;;;10.13;4.22;;;13.90;49.70;;;;;;5073855;28;20067;-59
2023/09/24 08:25:14;;;;;;;12.55;4.82;;;13.80;52.80;;;;;;5073698;28;20075;-60
2023/09/24 08:27:40;;;;;;;10.23;4.18;;;13.90;48.80;;;;;;5073493;28;20045;-60
2023/09/24 08:30:06;;;;;;;11.20;4.20;;;14.00;46.40;;;;;;5072383;28;20090;-59
2023/09/24 08:32:32;;;;;;;9.43;4.28;;;14.00;39.80;;;;;;5073775;28;20080;-60
2023/09/24 08:34:58;;;;;;;9.73;4.07;;;14.00;41.60;;;;;;5055863;28;20079;-60
2023/09/24 08:37:23;;;;;;;11.30;4.68;;;14.10;38.60;;;;;;5072491;28;20047;-60
2023/09/24 08:39:49;;;;;;;8.82;4.60;;;14.20;41.30;;;;;;5073734;28;20378;-58
2023/09/24 08:42:18;;;;;;;11.82;4.43;;;14.20;35.80;;;;;;5073536;28;20040;-60
2023/09/24 08:44:46;;;;;;;10.65;4.43;;;14.20;35.40;;;;;;5073619;28;20409;-60
2023/09/24 08:47:12;;;;;;;10.40;4.18;;;14.30;33.30;;;;;;5073502;28;20041;-60
2023/09/24 08:49:39;;;;;;;10.55;4.43;;;14.30;32.00;;;;;;5072100;28;20052;-60
2023/09/24 08:52:09;;;;;;;9.18;3.92;;;14.40;38.60;;;;;;5073250;28;20378;-60
2023/09/24 08:54:35;;;;;;;10.77;3.63;;;14.40;27.50;;;;;;5072977;28;20048;-60
2023/09/24 08:57:01;;;;;;;10.80;3.63;;;14.50;24.70;;;;;;5073059;28;20398;-60
2023/09/24 08:59:26;;;;;;;10.35;4.03;;;14.50;27.40;;;;;;5071701;28;20040;-60
2023/09/24 09:01:55;;;;;;;9.65;4.30;;;14.50;22.30;;;;;;5073271;28;20041;-60
2023/09/24 09:04:21;;;;;;;8.38;3.60;;;14.60;27.00;;;;;;5072923;28;20044;-60
2023/09/24 09:06:46;;;;;;;10.30;4.68;;;14.60;20.90;;;;;;5073095;28;20039;-61
2023/09/24 09:09:25;;;;;;;9.68;3.83;;;14.70;21.60;;;;;;5073005;28;20064;-60
2023/09/24 09:11:51;;;;;;;8.55;3.55;;;14.80;24.20;;;;;;5072155;28;20106;-60
2023/09/24 09:14:33;;;;;;;10.07;3.42;;;14.90;27.40;;;;;;5071161;28;20409;-60
2023/09/24 09:16:59;;;;;;;10.07;3.57;;;15.00;26.10;;;;;;5072974;28;20044;-60
2023/09/24 09:19:25;;;;;;;13.02;3.25;;;14.90;15.70;;;;;;5072599;28;20040;-60
2023/09/24 09:21:51;;;;;;;11.07;3.72;;;15.00;9.50;;;;;;5072563;28;20040;-60
2023/09/24 09:24:25;;;;;;;10.27;3.25;;;15.10;10.60;;;;;;5072679;28;20048;-59
2023/09/24 09:26:55;;;;;;;10.07;2.80;;;15.10;5.90;;;;;;5072742;28;20093;-60
2023/09/24 09:29:25;;;;;;;9.68;2.70;;;15.20;10.60;;;;;;5072522;28;20035;-60
2023/09/24 09:31:52;;;;;;;9.98;3.50;;;15.30;9.20;;;;;;5072487;28;20075;-60
2023/09/24 09:34:18;;;;;;;8.00;3.10;;;15.40;1.40;;;;;;5072256;28;20036;-60
2023/09/24 09:36:43;;;;;;;9.18;2.63;;;15.40;1.00;;;;;;5072591;28;20040;-61
2023/09/24 09:39:09;;;;;;;8.65;3.00;;;15.50;1.00;;;;;;5072438;28;20040;-61
2023/09/24 09:41:37;;;;;;;10.30;2.70;;;15.50;1.00;;;;;;5072232;28;20403;-60
2023/09/24 09:44:06;;;;;;;10.48;3.33;;;15.50;1.00;;;;;;5072447;28;20089;-60
2023/09/24 09:46:38;;;;;;;7.13;2.92;;;15.60;1.00;;;;;;5072262;28;20044;-60
2023/09/24 09:49:07;;;;;;;7.63;2.70;;;15.70;1.00;;;;;;5072429;28;20130;-60
2023/09/24 09:51:46;;;;;;;9.18;2.78;;;15.70;1.00;;;;;;5072336;28;20106;-60
2023/09/24 09:54:12;;;;;;;7.90;3.00;;;15.70;1.00;;;;;;5072257;28;20051;-60
2023/09/24 09:56:40;;;;;;;8.07;2.83;;;15.80;1.00;;;;;;5072159;28;20037;-61
2023/09/24 09:59:06;;;;;;;9.98;2.55;;;15.90;1.00;;;;;;5072447;28;20086;-60
2023/09/24 10:01:31;;;;;;;9.70;2.42;;;15.90;1.00;;;;;;5072049;28;20040;-61
2023/09/24 10:03:59;;;;;;;8.57;2.30;;;15.90;1.00;;;;;;5072289;28;20431;-60
2023/09/24 10:06:25;;;;;;;7.93;2.33;;;16.00;1.00;;;;;;5071961;28;20523;-60
2023/09/24 10:08:52;;;;;;;9.70;2.97;;;15.90;1.00;;;;;;5071970;28;20451;-59
2023/09/24 10:11:44;;;;;;;8.52;2.88;;;16.10;1.00;;;;;;5072264;28;20033;-60
2023/09/24 10:14:10;;;;;;;7.93;2.80;;;16.10;1.00;;;;;;5070489;28;20090;-59
2023/09/24 10:16:38;;;;;;;11.95;2.90;;;16.10;1.00;;;;;;5071715;28;20080;-60
2023/09/24 10:19:08;;;;;;;8.00;2.47;;;16.20;1.00;;;;;;5071964;28;20040;-60
2023/09/24 10:21:39;;;;;;;6.55;2.50;;;16.10;1.00;;;;;;5071806;28;20045;-60
2023/09/24 10:24:14;;;;;;;8.38;2.72;;;16.20;1.00;;;;;;5074743;28;20047;-60
2023/09/24 10:26:49;;;;;;;6.80;2.20;;;16.20;1.00;;;;;;5075947;28;20132;-60
2023/09/24 10:29:19;;;;;;;9.90;2.45;;;16.30;1.00;;;;;;5075598;28;20075;-60
2023/09/24 10:32:10;;;;;;;9.95;2.55;;;16.30;1.00;;;;;;5074652;28;20101;-60
2023/09/24 10:34:53;;;;;;;8.23;2.63;;;16.40;1.00;;;;;;5075946;28;20384;-60
2023/09/24 10:37:21;;;;;;;9.75;2.47;;;16.50;1.00;;;;;;5075763;28;20493;-60
2023/09/24 10:42:29;;;;;;;6.65;2.10;;;16.70;1.00;;;;;;5075915;28;20044;-60
2023/09/24 10:45:07;;;;;;;8.60;2.38;;;16.70;1.00;;;;;;5074295;28;20056;-60
2023/09/24 10:47:35;;;;;;;6.72;2.15;;;16.80;1.00;;;;;;5075772;28;20048;-61
2023/09/24 10:50:15;;;;;;;7.43;2.28;;;16.90;1.00;;;;;;5075420;28;20060;-61
2023/09/24 10:52:52;;;;;;;7.65;2.10;;;17.00;1.00;;;;;;5075493;28;20041;-60
2023/09/24 10:55:42;;;;;;;7.25;2.30;;;16.90;1.00;;;;;;5075386;28;20047;-60
2023/09/24 10:58:17;;;;;;;7.82;2.17;;;17.00;1.00;;;;;;5075586;28;20064;-60
2023/09/24 11:00:49;;;;;;;8.52;2.13;;;17.10;1.00;;;;;;5075541;28;20410;-60
2023/09/24 11:03:15;;;;;;;8.27;2.38;;;17.10;1.00;;;;;;5075464;28;20040;-60
2023/09/24 11:05:42;;;;;;;8.32;1.88;;;17.20;1.00;;;;;;5075189;28;20390;-60
2023/09/24 11:08:09;;;;;;;7.20;2.15;;;17.30;1.00;;;;;;5075092;28;20076;-60
2023/09/24 11:10:35;;;;;;;7.28;1.70;;;17.40;1.00;;;;;;5075290;28;20400;-61
2023/09/24 11:13:03;;;;;;;7.10;2.00;;;17.50;1.00;;;;;;5075060;28;20044;-60
2023/09/24 11:15:31;;;;;;;8.15;2.10;;;17.50;1.00;;;;;;5074785;28;20492;-60
2023/09/24 11:17:57;;;;;;;10.25;2.20;;;17.50;1.00;;;;;;5075031;28;20072;-60
2023/09/24 11:20:24;;;;;;;7.38;2.20;;;17.60;1.00;;;;;;5074869;28;20082;-61
2023/09/24 11:23:09;;;;;;;8.13;1.98;;;17.60;1.00;;;;;;5075142;28;20044;-60
2023/09/24 11:25:36;;;;;;;9.23;2.03;;;17.70;1.00;;;;;;5074833;28;20052;-61
2023/09/24 11:28:03;;;;;;;7.43;2.17;;;17.80;1.00;;;;;;5073799;28;20064;-60
2023/09/24 11:30:49;;;;;;;6.65;1.90;;;17.70;1.00;;;;;;5075070;28;20043;-60
2023/09/24 11:33:17;;;;;;;6.28;1.60;;;17.60;1.00;;;;;;5074676;28;20080;-60
2023/09/24 11:35:44;;;;;;;5.90;1.73;;;17.70;1.00;;;;;;5073829;28;20558;-60
2023/09/24 11:38:10;;;;;;;6.03;1.67;;;17.80;1.00;;;;;;5074731;28;20123;-59
2023/09/24 11:40:41;;;;;;;6.93;1.92;;;17.90;1.00;;;;;;5074587;28;20040;-60
2023/09/24 11:43:13;;;;;;;6.80;1.85;;;17.80;1.00;;;;;;5074817;28;20036;-60
2023/09/24 11:45:55;;;;;;;6.55;1.60;;;17.70;1.00;;;;;;5074754;28;20079;-60
2023/09/24 11:48:26;;;;;;;7.28;1.65;;;17.70;1.00;;;;;;5074839;28;20392;-60
2023/09/24 11:50:56;;;;;;;7.15;1.73;;;17.70;1.00;;;;;;5074524;28;20037;-60
2023/09/24 11:53:25;;;;;;;8.48;1.60;;;17.80;1.00;;;;;;5074269;28;20037;-60
2023/09/24 11:55:53;;;;;;;6.90;1.85;;;17.80;1.00;;;;;;5074371;28;20041;-61
2023/09/24 11:58:20;;;;;;;5.72;1.70;;;18.00;1.00;;;;;;5073992;28;20706;-61
2023/09/24 12:00:46;;;;;;;5.78;1.63;;;18.00;1.00;;;;;;5074078;28;20498;-61
2023/09/24 12:03:12;;;;;;;6.38;1.80;;;18.00;1.00;;;;;;5074277;28;20453;-61
2023/09/24 12:05:38;;;;;;;7.05;1.60;;;18.00;1.00;;;;;;5073050;28;20047;-61
2023/09/24 12:08:05;;;;;;;5.70;1.70;;;18.10;1.00;;;;;;5074332;28;20048;-60
2023/09/24 12:10:40;;;;;;;7.25;1.60;;;18.10;1.00;;;;;;5073910;28;20040;-60
2023/09/24 12:13:09;;;;;;;6.55;1.80;;;18.20;1.00;;;;;;5074282;28;20127;-60
2023/09/24 12:15:36;;;;;;;6.13;1.75;;;18.30;1.00;;;;;;5073787;28;20048;-60
2023/09/24 12:18:07;;;;;;;8.93;2.10;;;18.40;1.00;;;;;;5074160;28;20060;-60
2023/09/24 12:20:34;;;;;;;6.40;1.80;;;18.50;1.00;;;;;;5074086;28;20065;-60
2023/09/24 12:23:01;;;;;;;7.30;1.85;;;18.60;1.00;;;;;;5073998;28;20045;-60
2023/09/24 12:25:31;;;;;;;6.72;2.45;;;18.60;1.00;;;;;;5072652;28;20079;-60
2023/09/24 12:27:56;;;;;;;5.35;1.45;;;18.60;1.00;;;;;;5073597;28;20047;-60
2023/09/24 12:30:23;;;;;;;7.60;1.90;;;18.70;1.00;;;;;;5073863;28;20385;-60
2023/09/24 12:32:49;;;;;;;4.82;1.67;;;18.70;1.00;;;;;;5073681;28;20048;-60
2023/09/24 12:35:14;;;;;;;6.40;1.65;;;18.80;1.00;;;;;;5073399;28;20400;-60
2023/09/24 12:37:41;;;;;;;5.30;1.38;;;18.70;1.00;;;;;;5073698;28;20044;-61
2023/09/24 12:40:09;;;;;;;5.53;1.65;;;18.60;1.00;;;;;;5073655;28;20033;-60
2023/09/24 12:42:35;;;;;;;6.57;1.60;;;18.50;1.00;;;;;;5073395;28;20075;-60
2023/09/24 12:45:03;;;;;;;5.80;1.70;;;18.60;1.00;;;;;;5073457;28;20048;-61
2023/09/24 12:47:31;;;;;;;6.38;1.73;;;18.50;1.00;;;;;;5073131;28;20496;-60
2023/09/24 12:49:57;;;;;;;6.25;1.55;;;18.50;1.00;;;;;;5073104;28;20047;-60
2023/09/24 12:52:34;;;;;;;6.47;1.58;;;18.50;1.00;;;;;;5073386;28;20059;-61